Time;durP1;ratioP1;P1;durP2;ratioP2;P2;SDS_P1;SDS_P2;PMS_P1;PMS_P2;Temp;Humidity;BMP_temperature;BMP_pressure;BME280_temperature;BME280_humidity;BME280_pressure;Samples;Min_cycle;Max_cycle;Signal;HPM_P1;HPM_P2
2023/10/07 00:00:40;;;;;;;4.53;1.45;;;14.20;99.90;;;;;;4917510;29;20436;-87
2023/10/07 00:03:06;;;;;;;2.70;0.82;;;14.20;99.90;;;;;;4951590;29;20027;-87
2023/10/07 00:05:35;;;;;;;4.93;1.27;;;14.10;99.90;;;;;;4949392;29;20091;-88
2023/10/07 00:08:12;;;;;;;4.60;1.73;;;14.10;99.90;;;;;;4951897;29;20035;-87
2023/10/07 00:10:41;;;;;;;6.00;1.15;;;14.20;99.90;;;;;;4950337;29;20036;-88
2023/10/07 00:13:10;;;;;;;5.72;1.55;;;14.10;99.90;;;;;;4934382;29;20034;-88
2023/10/07 00:15:43;;;;;;;3.33;0.90;;;14.10;99.90;;;;;;4918944;29;20122;-89
2023/10/07 00:18:13;;;;;;;3.17;1.10;;;14.10;99.90;;;;;;4952667;29;20031;-86
2023/10/07 00:20:41;;;;;;;;;;;14.20;99.90;;;;;;4959861;28;20039;-88
2023/10/07 00:23:09;;;;;;;5.40;2.15;;;14.20;99.90;;;;;;4941822;29;20034;-87
2023/10/07 00:25:38;;;;;;;5.80;2.88;;;14.20;99.90;;;;;;4949467;29;20050;-87
2023/10/07 00:28:31;;;;;;;6.90;2.72;;;14.20;99.90;;;;;;4949513;29;20027;-88
2023/10/07 00:30:55;;;;;;;10.18;3.97;;;14.30;99.90;;;;;;4936988;29;20039;-89
2023/10/07 00:33:21;;;;;;;10.70;3.80;;;14.40;99.90;;;;;;4952484;29;20035;-87
2023/10/07 00:35:53;;;;;;;8.13;2.83;;;14.50;99.90;;;;;;4931795;29;20031;-88
2023/10/07 00:38:24;;;;;;;9.68;3.13;;;14.40;99.90;;;;;;4940391;29;20027;-88
2023/10/07 00:40:56;;;;;;;10.23;4.45;;;14.40;99.90;;;;;;4934420;29;20038;-88
2023/10/07 00:43:30;;;;;;;10.70;4.47;;;14.40;99.90;;;;;;4931915;29;20027;-88
2023/10/07 00:46:11;;;;;;;7.15;3.30;;;14.40;99.90;;;;;;4938524;29;20114;-88
2023/10/07 00:48:45;;;;;;;5.80;2.22;;;14.40;99.90;;;;;;4934696;29;20054;-87
2023/10/07 00:51:12;;;;;;;9.55;3.55;;;14.30;99.90;;;;;;4958931;28;20069;-87
2023/10/07 00:53:45;;;;;;;7.05;3.13;;;14.30;99.90;;;;;;4946238;29;20055;-88
2023/10/07 00:56:14;;;;;;;9.45;2.90;;;14.40;99.90;;;;;;4916611;29;20374;-89
2023/10/07 00:58:41;;;;;;;6.40;3.42;;;14.30;99.90;;;;;;4933255;29;20098;-90
2023/10/07 01:01:12;;;;;;;8.90;3.28;;;14.30;99.90;;;;;;4932899;29;20520;-86
2023/10/07 01:03:47;;;;;;;8.55;2.75;;;14.30;99.90;;;;;;4949051;29;20050;-87
2023/10/07 01:06:27;;;;;;;9.18;4.13;;;14.30;99.90;;;;;;4950169;29;20046;-88
2023/10/07 01:08:58;;;;;;;8.88;4.25;;;14.30;99.90;;;;;;4933918;29;20420;-88
2023/10/07 01:11:29;;;;;;;8.57;3.60;;;14.30;99.90;;;;;;4932014;29;20043;-87
2023/10/07 01:13:59;;;;;;;10.70;4.90;;;14.20;99.90;;;;;;4933048;29;20039;-88
2023/10/07 01:16:44;;;;;;;10.38;4.43;;;14.20;99.90;;;;;;4930604;29;20027;-91
2023/10/07 01:29:43;;;;;;;7.05;4.65;;;14.20;99.90;;;;;;4946406;29;20064;-90
2023/10/07 01:32:17;;;;;;;7.95;3.60;;;14.10;99.90;;;;;;4932106;29;20082;-87
2023/10/07 01:34:52;;;;;;;8.43;4.05;;;14.10;99.90;;;;;;4932875;29;20027;-87
2023/10/07 01:37:21;;;;;;;10.50;5.88;;;14.10;99.90;;;;;;4941531;29;20113;-88
2023/10/07 01:39:53;;;;;;;13.25;4.97;;;14.10;99.90;;;;;;4915588;29;20039;-90
2023/10/07 01:42:38;;;;;;;9.55;5.22;;;14.10;99.90;;;;;;4945338;29;20126;-89
2023/10/07 01:45:19;;;;;;;9.02;4.75;;;14.10;99.90;;;;;;4918439;29;20055;-89
2023/10/07 01:47:48;;;;;;;9.65;4.07;;;14.10;99.90;;;;;;4934217;29;20024;-88
2023/10/07 01:50:15;;;;;;;11.25;5.00;;;14.00;99.90;;;;;;4947055;29;20031;-88
2023/10/07 01:52:45;;;;;;;17.05;6.07;;;14.10;99.90;;;;;;4930058;29;20089;-88
2023/10/07 01:55:11;;;;;;;9.00;4.25;;;14.10;99.90;;;;;;4948560;29;20031;-88
2023/10/07 01:57:40;;;;;;;10.05;4.88;;;14.00;99.90;;;;;;4916839;29;20031;-89
2023/10/07 02:00:07;;;;;;;10.23;5.22;;;14.00;99.90;;;;;;4954807;28;20552;-89
2023/10/07 02:02:49;;;;;;;10.05;6.05;;;14.00;99.90;;;;;;4949885;29;20031;-88
2023/10/07 02:05:16;;;;;;;13.77;6.72;;;14.10;99.90;;;;;;4947798;29;20031;-88
2023/10/07 02:07:43;;;;;;;12.35;6.95;;;14.10;99.90;;;;;;4940309;29;20059;-88
2023/10/07 02:10:16;;;;;;;9.65;6.38;;;14.10;99.90;;;;;;4913652;29;20114;-90
2023/10/07 02:12:45;;;;;;;15.85;7.18;;;14.10;99.90;;;;;;4946131;29;20122;-87
2023/10/07 02:15:19;;;;;;;14.35;6.30;;;14.20;99.90;;;;;;4947601;29;20399;-89
2023/10/07 02:17:47;;;;;;;15.48;7.68;;;14.20;99.90;;;;;;4930764;29;20041;-88
2023/10/07 02:20:25;;;;;;;15.85;6.80;;;14.20;99.90;;;;;;4940408;29;20035;-90
2023/10/07 02:22:52;;;;;;;15.65;7.45;;;14.20;99.90;;;;;;4917962;29;20058;-88
2023/10/07 02:25:26;;;;;;;12.50;6.78;;;14.20;99.90;;;;;;4931532;29;20039;-89
2023/10/07 02:27:52;;;;;;;13.48;6.43;;;14.20;99.90;;;;;;4941397;29;20039;-90
2023/10/07 02:30:19;;;;;;;14.07;7.53;;;14.30;99.90;;;;;;4935049;29;20027;-93
2023/10/07 02:32:49;;;;;;;14.40;8.57;;;14.30;99.90;;;;;;4915162;29;20484;-88
2023/10/07 02:35:19;;;;;;;10.10;5.78;;;14.30;99.90;;;;;;4947615;29;20035;-88
2023/10/07 02:37:57;;;;;;;12.95;6.20;;;14.30;99.90;;;;;;4956480;28;20154;-88
2023/10/07 02:40:35;;;;;;;11.52;6.70;;;14.30;99.90;;;;;;4934155;29;20037;-89
2023/10/07 02:43:07;;;;;;;14.73;8.05;;;14.40;99.90;;;;;;4948569;29;20019;-90
2023/10/07 02:45:39;;;;;;;10.85;5.78;;;14.40;99.90;;;;;;4934949;29;20027;-90
2023/10/07 02:48:10;;;;;;;10.13;6.72;;;14.40;99.90;;;;;;4928880;29;20023;-88
2023/10/07 02:50:42;;;;;;;9.48;5.18;;;14.40;99.90;;;;;;4956949;28;20066;-88
2023/10/07 02:53:16;;;;;;;10.50;5.03;;;14.30;99.90;;;;;;4935096;29;20031;-91
2023/10/07 02:55:54;;;;;;;11.00;5.43;;;14.40;99.90;;;;;;4928088;29;20071;-88
2023/10/07 03:01:14;;;;;;;12.80;7.95;;;14.40;99.90;;;;;;4906666;29;20035;-88
2023/10/07 03:03:48;;;;;;;13.13;6.43;;;14.40;99.90;;;;;;4940345;29;20023;-89
2023/10/07 03:06:17;;;;;;;9.05;5.78;;;14.40;99.90;;;;;;4914505;29;20042;-87
2023/10/07 03:08:57;;;;;;;12.82;8.68;;;14.40;99.90;;;;;;4929196;29;20035;-88
2023/10/07 03:11:24;;;;;;;16.25;7.88;;;14.40;99.90;;;;;;4930499;29;20480;-92
2023/10/07 03:13:56;;;;;;;12.75;7.78;;;14.50;99.90;;;;;;4931373;29;20488;-88
2023/10/07 03:19:20;;;;;;;7.78;5.60;;;14.50;99.90;;;;;;4933193;29;20050;-89
2023/10/07 03:24:13;;;;;;;13.38;7.57;;;14.50;99.90;;;;;;4932072;29;20066;-91
2023/10/07 03:26:46;;;;;;;16.70;8.20;;;14.50;99.90;;;;;;4942852;29;20055;-87
2023/10/07 03:29:30;;;;;;;20.92;9.73;;;14.50;99.90;;;;;;4930732;29;20381;-88
2023/10/07 03:31:59;;;;;;;12.30;7.68;;;14.50;99.90;;;;;;4947692;29;20059;-88
2023/10/07 03:34:25;;;;;;;14.57;8.48;;;14.60;99.90;;;;;;4931160;29;20043;-89
2023/10/07 03:40:36;;;;;;;13.63;8.10;;;14.60;99.90;;;;;;4937524;29;20075;-91
2023/10/07 03:42:30;;;;;;;22.33;10.98;;;14.60;99.90;;;;;;4929348;29;20035;-89
2023/10/07 03:44:56;;;;;;;16.85;10.30;;;14.60;99.90;;;;;;4931838;29;20031;-89
2023/10/07 03:47:24;;;;;;;11.45;7.78;;;14.60;99.90;;;;;;4918223;29;20031;-90
2023/10/07 03:49:52;;;;;;;10.30;6.10;;;14.60;99.90;;;;;;4939317;29;20063;-91
2023/10/07 03:52:20;;;;;;;10.93;7.90;;;14.60;99.90;;;;;;4939646;29;20038;-90
2023/10/07 03:54:47;;;;;;;13.32;8.35;;;14.60;99.90;;;;;;4951669;29;20551;-89
2023/10/07 03:57:15;;;;;;;14.38;7.35;;;14.70;99.90;;;;;;4918651;29;20023;-92
2023/10/07 03:59:41;;;;;;;12.75;8.38;;;14.70;99.90;;;;;;4955743;28;20110;-90
2023/10/07 04:02:49;;;;;;;11.30;6.82;;;14.70;99.90;;;;;;4915701;29;20483;-92
2023/10/07 04:05:12;;;;;;;13.60;8.18;;;14.70;99.90;;;;;;4927797;29;20043;-89
2023/10/07 04:07:39;;;;;;;15.00;9.07;;;14.70;99.90;;;;;;4952696;29;20039;-90
2023/10/07 04:10:43;;;;;;;18.73;10.07;;;14.70;99.90;;;;;;4950948;29;20378;-89
2023/10/07 04:12:57;;;;;;;17.70;9.05;;;14.80;99.90;;;;;;4948376;29;20057;-89
2023/10/07 04:15:29;;;;;;;12.65;6.20;;;14.70;99.90;;;;;;4950889;29;20031;-89
2023/10/07 04:17:55;;;;;;;14.93;7.70;;;14.70;99.90;;;;;;4917618;29;20027;-90
2023/10/07 04:20:24;;;;;;;10.52;5.72;;;14.80;99.90;;;;;;4948474;29;20020;-89
2023/10/07 04:22:57;;;;;;;8.75;4.32;;;14.80;99.90;;;;;;4935582;29;20047;-87
2023/10/07 04:25:24;;;;;;;14.07;7.80;;;14.80;99.90;;;;;;4934133;29;20101;-90
2023/10/07 04:27:53;;;;;;;8.88;4.97;;;14.80;99.90;;;;;;4917153;29;20039;-90
2023/10/07 04:30:25;;;;;;;10.77;4.95;;;14.80;99.90;;;;;;4940805;29;20031;-89
2023/10/07 04:32:57;;;;;;;13.90;6.75;;;14.80;99.90;;;;;;4938243;29;20035;-90
2023/10/07 04:35:26;;;;;;;12.48;6.28;;;14.80;99.90;;;;;;4958844;28;20045;-89
2023/10/07 04:37:59;;;;;;;13.32;6.10;;;14.80;99.90;;;;;;4952948;29;20031;-90
2023/10/07 04:43:25;;;;;;;16.42;10.10;;;14.90;99.90;;;;;;4959831;28;20280;-89
2023/10/07 04:45:49;;;;;;;10.70;6.65;;;14.90;99.90;;;;;;4950245;28;20043;-89
2023/10/07 04:48:40;;;;;;;13.07;8.32;;;14.90;99.90;;;;;;4933243;29;20023;-93
2023/10/07 04:51:12;;;;;;;14.32;9.40;;;14.90;99.90;;;;;;4944419;29;20027;-89
2023/10/07 04:53:39;;;;;;;22.70;9.68;;;14.90;99.90;;;;;;4917947;29;20031;-90
2023/10/07 04:56:10;;;;;;;13.18;9.15;;;14.90;99.90;;;;;;4934359;29;20027;-88
2023/10/07 04:58:39;;;;;;;15.90;7.82;;;14.90;99.90;;;;;;4934174;29;20058;-92
2023/10/07 05:01:22;;;;;;;11.07;7.32;;;14.80;99.90;;;;;;4930575;29;20035;-95
2023/10/07 05:03:52;;;;;;;14.85;9.65;;;14.90;99.90;;;;;;4918519;29;20488;-93
2023/10/07 05:06:22;;;;;;;15.07;9.20;;;14.90;99.90;;;;;;4958225;28;20492;-93
2023/10/07 05:08:48;;;;;;;17.40;8.82;;;14.90;99.90;;;;;;4939362;29;20027;-94
2023/10/07 05:11:22;;;;;;;17.85;9.82;;;14.90;99.90;;;;;;4955785;29;20031;-89
2023/10/07 05:14:17;;;;;;;11.40;8.05;;;14.90;99.90;;;;;;4952113;28;20313;-94
2023/10/07 05:16:46;;;;;;;15.00;10.00;;;14.90;99.90;;;;;;4947400;29;20037;-92
2023/10/07 05:19:22;;;;;;;16.67;9.30;;;14.90;99.90;;;;;;4946607;29;20082;-93
2023/10/07 05:24:38;;;;;;;15.95;11.15;;;14.90;99.90;;;;;;4935507;29;20035;-92
2023/10/07 05:27:05;;;;;;;21.17;13.90;;;15.00;99.90;;;;;;4917443;29;20037;-95
2023/10/07 05:29:31;;;;;;;20.05;12.32;;;15.00;99.90;;;;;;4932553;29;20031;-93
2023/10/07 05:31:58;;;;;;;13.95;9.05;;;15.00;99.90;;;;;;4952553;29;20620;-92
2023/10/07 05:34:28;;;;;;;21.05;12.57;;;15.00;99.90;;;;;;4918460;29;20468;-92
2023/10/07 05:36:58;;;;;;;12.73;8.60;;;15.00;99.90;;;;;;4931387;29;20036;-93
2023/10/07 05:39:25;;;;;;;15.38;8.55;;;15.00;99.90;;;;;;4915678;29;20039;-90
2023/10/07 05:41:51;;;;;;;17.60;9.93;;;15.10;99.90;;;;;;4914860;29;20061;-95
2023/10/07 05:44:20;;;;;;;21.20;13.38;;;15.00;99.90;;;;;;4933560;29;20031;-90
2023/10/07 05:46:46;;;;;;;18.88;13.20;;;15.10;99.90;;;;;;4927485;29;20030;-91
2023/10/07 05:49:11;;;;;;;20.88;14.60;;;15.10;99.90;;;;;;4931475;29;20479;-91
2023/10/07 05:51:37;;;;;;;25.25;15.35;;;15.20;99.90;;;;;;4930744;29;20074;-87
2023/10/07 05:54:05;;;;;;;15.70;10.30;;;15.20;99.90;;;;;;4945579;29;20031;-89
2023/10/07 05:56:31;;;;;;;15.73;10.70;;;15.20;99.90;;;;;;4932158;29;20520;-89
2023/10/07 05:58:57;;;;;;;18.83;12.25;;;15.20;99.90;;;;;;4928808;29;20126;-89
2023/10/07 06:01:24;;;;;;;19.60;14.75;;;15.20;99.90;;;;;;4948316;29;20027;-88
2023/10/07 06:03:51;;;;;;;24.90;15.43;;;15.30;99.90;;;;;;4929504;29;20031;-89
2023/10/07 06:06:18;;;;;;;28.25;16.30;;;15.30;99.90;;;;;;4918330;29;20195;-89
2023/10/07 06:08:44;;;;;;;27.80;17.25;;;15.30;99.90;;;;;;4916357;29;20064;-91
2023/10/07 06:11:10;;;;;;;23.50;17.45;;;15.30;99.90;;;;;;4947153;29;20027;-89
2023/10/07 06:13:37;;;;;;;23.60;17.55;;;15.40;99.90;;;;;;4930484;29;20046;-88
2023/10/07 06:16:07;;;;;;;21.67;14.27;;;15.40;99.90;;;;;;4930725;29;20471;-87
2023/10/07 06:18:33;;;;;;;25.58;15.05;;;15.40;99.90;;;;;;4948517;28;20101;-92
2023/10/07 06:23:44;;;;;;;30.48;19.40;;;15.50;99.90;;;;;;4932238;29;20034;-88
2023/10/07 06:26:12;;;;;;;24.02;16.85;;;15.50;99.90;;;;;;4910058;29;20036;-89
2023/10/07 06:28:44;;;;;;;21.15;14.25;;;15.50;99.90;;;;;;4916226;29;20038;-89
2023/10/07 06:31:11;;;;;;;24.52;15.43;;;15.50;99.90;;;;;;4930963;29;20095;-90
2023/10/07 06:33:43;;;;;;;16.75;12.55;;;15.50;99.90;;;;;;4945655;29;20035;-90
2023/10/07 06:36:12;;;;;;;15.63;12.07;;;15.60;99.90;;;;;;4926360;29;20436;-90
2023/10/07 06:38:45;;;;;;;18.23;13.63;;;15.60;99.90;;;;;;4943424;29;20047;-91
2023/10/07 06:41:12;;;;;;;25.67;15.60;;;15.60;99.90;;;;;;4946077;29;20466;-90
2023/10/07 06:43:42;;;;;;;25.00;15.57;;;15.70;99.90;;;;;;4909550;29;20134;-90
2023/10/07 06:46:11;;;;;;;23.75;15.68;;;15.70;99.90;;;;;;4929377;29;20163;-90
2023/10/07 06:48:38;;;;;;;20.88;13.57;;;15.70;99.90;;;;;;4945833;29;20031;-92
2023/10/07 06:51:06;;;;;;;16.35;13.00;;;15.70;99.90;;;;;;4929786;29;20106;-91
2023/10/07 06:53:32;;;;;;;13.35;10.77;;;15.70;99.90;;;;;;4931802;29;20027;-91
2023/10/07 06:56:01;;;;;;;19.25;12.65;;;15.80;99.90;;;;;;4951603;28;20680;-90
2023/10/07 06:58:27;;;;;;;18.02;11.15;;;15.80;99.90;;;;;;4930946;29;20507;-91
2023/10/07 07:00:59;;;;;;;17.77;12.45;;;15.80;99.90;;;;;;4948131;29;20526;-89
2023/10/07 07:03:26;;;;;;;20.95;12.93;;;15.90;99.90;;;;;;4947406;28;20032;-89
2023/10/07 07:05:54;;;;;;;18.20;12.80;;;15.90;99.90;;;;;;4912551;29;20473;-95
2023/10/07 07:08:22;;;;;;;23.30;16.05;;;15.90;99.90;;;;;;4945929;29;20051;-88
2023/10/07 07:10:55;;;;;;;21.70;13.85;;;15.90;99.90;;;;;;4919893;29;20052;-89
2023/10/07 07:13:27;;;;;;;21.50;13.88;;;16.00;99.90;;;;;;4956211;28;20715;-90
2023/10/07 07:16:06;;;;;;;17.65;11.38;;;16.00;99.90;;;;;;4928925;29;20023;-89
2023/10/07 07:18:39;;;;;;;16.40;10.50;;;16.10;99.90;;;;;;4952614;29;20043;-90
2023/10/07 07:23:51;;;;;;;18.27;10.68;;;16.10;99.90;;;;;;4950889;29;20031;-92
2023/10/07 07:26:21;;;;;;;21.85;14.27;;;16.20;99.90;;;;;;4913761;29;20023;-94
2023/10/07 07:28:48;;;;;;;20.77;14.30;;;16.10;99.90;;;;;;4932205;29;20035;-91
2023/10/07 07:31:18;;;;;;;15.45;10.63;;;16.20;99.90;;;;;;4951941;29;20031;-90
2023/10/07 07:33:48;;;;;;;14.90;10.13;;;16.20;99.90;;;;;;4916873;29;20559;-91
2023/10/07 07:36:39;;;;;;;13.45;8.48;;;16.20;99.90;;;;;;4924313;29;20031;-89
2023/10/07 07:39:17;;;;;;;12.05;7.03;;;16.20;99.90;;;;;;4929895;29;20067;-89
2023/10/07 07:41:55;;;;;;;15.63;10.18;;;16.20;99.90;;;;;;4921257;29;20130;-89
2023/10/07 07:44:34;;;;;;;11.95;6.57;;;16.10;99.90;;;;;;4952011;29;20035;-93
2023/10/07 07:47:02;;;;;;;9.17;6.60;;;16.20;99.90;;;;;;4929691;29;20469;-92
2023/10/07 07:49:32;;;;;;;10.93;6.50;;;16.20;99.90;;;;;;4951834;29;20294;-91
2023/10/07 07:51:59;;;;;;;12.47;6.70;;;16.20;99.90;;;;;;4913101;29;20086;-92
2023/10/07 07:54:25;;;;;;;12.02;6.97;;;16.30;99.90;;;;;;4950472;29;20042;-89
2023/10/07 07:56:51;;;;;;;6.63;5.05;;;16.30;99.90;;;;;;4940345;29;20086;-90
2023/10/07 07:59:18;;;;;;;18.67;9.45;;;16.20;99.90;;;;;;4915728;29;20496;-90
2023/10/07 08:01:45;;;;;;;14.90;9.70;;;16.20;99.90;;;;;;4950946;29;20045;-89
2023/10/07 08:04:37;;;;;;;11.18;6.57;;;16.20;99.90;;;;;;4945040;29;20034;-94
2023/10/07 08:07:17;;;;;;;15.05;9.00;;;16.30;99.90;;;;;;4962263;28;20027;-90
2023/10/07 08:09:44;;;;;;;17.98;9.90;;;16.20;99.90;;;;;;4957593;28;20080;-92
2023/10/07 08:12:10;;;;;;;14.73;8.50;;;16.20;99.90;;;;;;4936009;29;20480;-92
2023/10/07 08:14:37;;;;;;;14.05;8.32;;;16.30;99.90;;;;;;4929452;29;20099;-90
2023/10/07 08:17:09;;;;;;;12.15;7.65;;;16.30;99.90;;;;;;4933826;29;20031;-91
2023/10/07 08:19:35;;;;;;;17.08;8.93;;;16.30;99.90;;;;;;4931700;29;20504;-92
2023/10/07 08:22:03;;;;;;;15.68;7.18;;;16.30;99.90;;;;;;4949042;28;20050;-94
2023/10/07 08:24:31;;;;;;;15.15;8.32;;;16.30;99.90;;;;;;4950298;28;20031;-91
2023/10/07 08:27:03;;;;;;;15.20;8.32;;;16.30;99.90;;;;;;4950690;29;20031;-90
2023/10/07 08:29:33;;;;;;;14.77;7.47;;;16.40;99.90;;;;;;4913164;29;20089;-89
2023/10/07 08:32:00;;;;;;;9.23;5.68;;;16.60;99.90;;;;;;4949623;29;20496;-91
2023/10/07 08:34:33;;;;;;;11.38;6.18;;;16.90;99.90;;;;;;4922740;29;20072;-92
2023/10/07 08:37:02;;;;;;;13.93;8.05;;;17.20;99.90;;;;;;4913486;29;20031;-92
2023/10/07 08:39:28;;;;;;;12.07;6.90;;;17.30;99.90;;;;;;4913864;29;20428;-91
2023/10/07 08:41:58;;;;;;;12.73;7.40;;;17.30;99.90;;;;;;4919620;29;20031;-91
2023/10/07 08:44:31;;;;;;;17.80;8.57;;;17.30;99.90;;;;;;4922782;29;20058;-94
2023/10/07 08:47:04;;;;;;;10.00;6.07;;;17.30;99.90;;;;;;4929610;29;20094;-92
2023/10/07 08:49:33;;;;;;;14.10;8.43;;;17.40;99.90;;;;;;4934697;29;20031;-91
2023/10/07 08:52:08;;;;;;;13.38;8.52;;;17.40;99.90;;;;;;4949727;29;20055;-93
2023/10/07 08:54:37;;;;;;;12.23;7.25;;;17.50;99.90;;;;;;4934273;29;20039;-96
2023/10/07 08:57:19;;;;;;;15.52;8.70;;;17.60;99.90;;;;;;4949863;29;20035;-91
2023/10/07 08:59:52;;;;;;;13.93;7.28;;;17.60;99.90;;;;;;4918397;29;20069;-92
2023/10/07 09:02:30;;;;;;;13.48;6.20;;;17.70;99.90;;;;;;4911768;29;20107;-93
2023/10/07 09:05:05;;;;;;;12.73;6.97;;;17.70;99.90;;;;;;4933293;29;20032;-93
2023/10/07 09:07:35;;;;;;;14.82;7.45;;;17.80;99.90;;;;;;4911759;29;20037;-93
2023/10/07 09:10:10;;;;;;;;;;;17.90;99.90;;;;;;4915946;29;20057;-92
2023/10/07 09:12:45;;;;;;;9.05;5.28;;;18.10;99.90;;;;;;4935877;29;19918;-92
2023/10/07 09:15:25;;;;;;;15.82;7.72;;;18.10;99.90;;;;;;4950224;29;20118;-94
2023/10/07 09:17:57;;;;;;;10.48;6.50;;;17.80;99.90;;;;;;4935390;29;20031;-92
2023/10/07 09:20:32;;;;;;;9.88;4.30;;;17.80;99.90;;;;;;4927103;29;20047;-94
2023/10/07 09:23:14;;;;;;;15.93;8.40;;;18.20;99.90;;;;;;4934964;29;20164;-95
2023/10/07 09:25:46;;;;;;;12.30;7.63;;;18.00;99.90;;;;;;4932353;29;20396;-95
2023/10/07 09:28:13;;;;;;;10.45;6.97;;;17.90;99.90;;;;;;4933183;29;20246;-93
2023/10/07 09:33:13;;;;;;;13.88;7.78;;;18.10;99.90;;;;;;4931770;29;20114;-92
2023/10/07 09:36:22;;;;;;;13.07;6.65;;;18.00;99.90;;;;;;4914730;29;20041;-94
2023/10/07 09:38:43;;;;;;;15.60;6.00;;;18.00;99.90;;;;;;4950493;28;20067;-93
2023/10/07 09:41:12;;;;;;;13.18;5.82;;;18.20;99.90;;;;;;4925840;29;20539;-91
2023/10/07 09:43:44;;;;;;;11.83;7.37;;;18.30;99.90;;;;;;4950632;29;20110;-93
2023/10/07 09:46:27;;;;;;;12.07;7.07;;;18.40;99.90;;;;;;4934093;29;20038;-93
2023/10/07 09:48:57;;;;;;;10.55;6.45;;;18.40;99.90;;;;;;4913893;29;20392;-94
2023/10/07 09:51:25;;;;;;;10.02;5.32;;;18.50;99.90;;;;;;4932982;29;20126;-93
2023/10/07 09:54:36;;;;;;;9.82;6.07;;;18.70;99.90;;;;;;4917270;29;20090;-95
2023/10/07 09:57:20;;;;;;;9.63;4.03;;;18.90;99.90;;;;;;4928982;29;20126;-93
2023/10/07 10:03:15;;;;;;;9.25;5.15;;;18.90;99.90;;;;;;4928889;29;20071;-91
2023/10/07 10:06:16;;;;;;;10.98;4.93;;;18.90;99.90;;;;;;4948856;29;20039;-91
2023/10/07 10:08:59;;;;;;;13.98;5.13;;;19.00;99.90;;;;;;4945315;29;20065;-92
2023/10/07 10:16:57;;;;;;;12.82;4.43;;;18.90;99.90;;;;;;4932007;29;20039;-93
2023/10/07 10:19:49;;;;;;;13.05;5.57;;;19.10;99.90;;;;;;4932579;29;20039;-93
2023/10/07 10:22:24;;;;;;;8.57;4.32;;;19.20;99.90;;;;;;4948878;29;20050;-92
2023/10/07 10:24:59;;;;;;;11.13;4.60;;;19.40;99.90;;;;;;4915896;29;20043;-91
2023/10/07 10:27:26;;;;;;;12.40;5.80;;;19.40;99.90;;;;;;4933145;29;20052;-93
2023/10/07 10:29:52;;;;;;;11.48;4.50;;;19.30;99.90;;;;;;4919035;29;20038;-90
2023/10/07 10:32:31;;;;;;;13.10;5.20;;;19.50;99.90;;;;;;4929853;29;20503;-91
2023/10/07 10:35:06;;;;;;;7.72;4.57;;;19.40;99.90;;;;;;4933744;29;20479;-94
2023/10/07 10:37:33;;;;;;;9.70;4.53;;;19.40;99.90;;;;;;4930978;29;20047;-91
2023/10/07 10:40:10;;;;;;;10.38;5.15;;;19.50;99.90;;;;;;4916732;29;20053;-92
2023/10/07 10:42:44;;;;;;;12.68;5.30;;;19.40;99.90;;;;;;4928123;29;20027;-91
2023/10/07 10:45:17;;;;;;;9.55;5.18;;;19.40;99.90;;;;;;4936754;29;20313;-94
2023/10/07 10:47:47;;;;;;;11.85;4.65;;;19.70;99.90;;;;;;4930210;29;20046;-91
2023/10/07 10:50:16;;;;;;;10.65;4.90;;;19.80;99.90;;;;;;4923185;29;20113;-91
2023/10/07 10:52:47;;;;;;;11.90;4.90;;;19.80;99.90;;;;;;4917924;29;20035;-91
2023/10/07 10:55:24;;;;;;;12.27;4.97;;;19.80;99.90;;;;;;4949091;29;20035;-92
2023/10/07 10:57:53;;;;;;;8.40;4.53;;;19.50;99.90;;;;;;4914668;29;20057;-94
2023/10/07 11:00:22;;;;;;;8.27;2.97;;;19.60;99.90;;;;;;4911617;29;20050;-95
2023/10/07 11:02:55;;;;;;;13.90;5.00;;;19.70;99.90;;;;;;4926939;29;20318;-93
2023/10/07 11:05:21;;;;;;;11.13;3.90;;;19.80;99.90;;;;;;4914796;29;20122;-92
2023/10/07 11:07:50;;;;;;;10.20;4.55;;;20.10;99.90;;;;;;4923064;29;20122;-89
2023/10/07 11:10:23;;;;;;;11.10;4.70;;;20.10;99.90;;;;;;4948045;29;20468;-93
2023/10/07 11:12:54;;;;;;;7.22;3.28;;;20.00;99.90;;;;;;4948450;29;20554;-93
2023/10/07 11:15:27;;;;;;;10.77;4.10;;;19.80;99.90;;;;;;4911962;29;20036;-93
2023/10/07 11:18:13;;;;;;;9.13;4.00;;;20.00;99.90;;;;;;4932919;29;20027;-93
2023/10/07 11:20:43;;;;;;;11.63;3.40;;;20.20;99.90;;;;;;4934357;29;20457;-93
2023/10/07 11:23:10;;;;;;;10.50;3.15;;;20.40;99.90;;;;;;4931468;29;20401;-93
2023/10/07 11:25:37;;;;;;;8.88;2.65;;;20.20;99.90;;;;;;4928151;29;20031;-93
2023/10/07 11:28:09;;;;;;;10.23;3.17;;;19.90;99.90;;;;;;4911075;29;20034;-93
2023/10/07 11:30:46;;;;;;;8.65;3.30;;;19.90;99.90;;;;;;4948261;29;20043;-92
2023/10/07 11:33:16;;;;;;;9.75;3.20;;;19.90;99.90;;;;;;4914901;29;20456;-91
2023/10/07 11:35:42;;;;;;;8.55;2.80;;;20.30;99.90;;;;;;4930932;29;20042;-94
2023/10/07 11:38:11;;;;;;;7.63;2.60;;;20.40;99.90;;;;;;4913918;29;20252;-93
2023/10/07 11:40:38;;;;;;;9.07;2.70;;;20.30;99.90;;;;;;4912578;29;20094;-94
2023/10/07 11:43:08;;;;;;;10.93;2.80;;;20.40;99.90;;;;;;4950234;29;20038;-92
2023/10/07 11:45:36;;;;;;;8.02;2.42;;;20.40;99.90;;;;;;4934510;28;20031;-92
2023/10/07 11:48:05;;;;;;;6.43;2.80;;;20.70;99.90;;;;;;4931737;29;20127;-94
2023/10/07 11:50:37;;;;;;;9.82;2.53;;;20.50;99.90;;;;;;4930802;29;20543;-90
2023/10/07 11:53:07;;;;;;;12.52;2.50;;;20.50;99.90;;;;;;4935187;29;20051;-95
2023/10/07 11:55:33;;;;;;;9.63;2.17;;;20.40;99.90;;;;;;4932825;29;20024;-94
2023/10/07 11:58:00;;;;;;;10.38;3.30;;;20.40;99.90;;;;;;4937091;29;20035;-92
2023/10/07 12:00:34;;;;;;;8.55;2.75;;;20.10;99.90;;;;;;4937845;29;20054;-94
2023/10/07 12:03:07;;;;;;;9.70;3.08;;;20.10;99.90;;;;;;4918184;29;20035;-95
2023/10/07 12:05:37;;;;;;;8.60;2.97;;;20.00;99.90;;;;;;4917742;29;20039;-92
2023/10/07 12:08:05;;;;;;;8.50;2.60;;;20.00;99.90;;;;;;4915293;29;20059;-91
2023/10/07 12:10:33;;;;;;;10.02;3.35;;;20.20;99.90;;;;;;4942578;29;20073;-94
2023/10/07 12:13:07;;;;;;;9.60;2.97;;;20.40;99.90;;;;;;4914874;29;20377;-92
2023/10/07 12:15:33;;;;;;;9.05;2.72;;;20.60;99.90;;;;;;4919365;29;20106;-92
2023/10/07 12:18:02;;;;;;;11.73;3.33;;;20.40;99.90;;;;;;4931185;29;20064;-91
2023/10/07 12:20:28;;;;;;;6.93;2.53;;;20.30;99.90;;;;;;4935147;29;20050;-91
2023/10/07 12:22:56;;;;;;;8.07;2.28;;;20.10;99.90;;;;;;4913332;29;20495;-91
2023/10/07 12:25:22;;;;;;;13.35;2.75;;;20.30;99.90;;;;;;4913609;29;20043;-94
2023/10/07 12:27:52;;;;;;;11.90;2.63;;;20.30;99.90;;;;;;4952023;29;20126;-94
2023/10/07 12:30:21;;;;;;;12.05;2.65;;;20.20;99.90;;;;;;4915127;29;20040;-92
2023/10/07 12:32:52;;;;;;;10.70;2.97;;;20.00;99.90;;;;;;4936257;29;20396;-92
2023/10/07 12:35:19;;;;;;;12.90;2.38;;;20.20;99.90;;;;;;4944303;29;20117;-92
2023/10/07 12:37:48;;;;;;;6.47;1.75;;;20.20;99.90;;;;;;4933128;29;20075;-91
2023/10/07 12:40:17;;;;;;;10.18;2.63;;;20.20;99.90;;;;;;4914128;29;20047;-91
2023/10/07 12:42:44;;;;;;;8.95;2.42;;;20.10;99.90;;;;;;4952531;29;20032;-93
2023/10/07 12:45:11;;;;;;;11.07;2.40;;;20.00;99.90;;;;;;4935043;29;20086;-95
2023/10/07 12:47:40;;;;;;;10.30;2.63;;;20.10;99.90;;;;;;4912904;29;20118;-92
2023/10/07 12:53:04;;;;;;;10.75;2.90;;;20.10;99.90;;;;;;4951985;29;20035;-92
2023/10/07 12:55:37;;;;;;;10.73;3.00;;;20.30;99.90;;;;;;4930846;29;20042;-93
2023/10/07 12:58:09;;;;;;;8.60;3.05;;;20.30;99.90;;;;;;4931247;29;20034;-93
2023/10/07 13:00:36;;;;;;;11.88;3.00;;;20.50;99.90;;;;;;4918429;29;20058;-92
2023/10/07 13:03:05;;;;;;;11.32;2.50;;;20.50;99.90;;;;;;4934839;29;20042;-90
2023/10/07 13:05:41;;;;;;;7.73;2.17;;;20.50;99.90;;;;;;4935836;29;20095;-91
2023/10/07 13:08:15;;;;;;;9.13;2.03;;;20.50;99.90;;;;;;4916192;29;20432;-92
2023/10/07 13:10:42;;;;;;;11.98;2.10;;;20.60;99.90;;;;;;4913264;29;20122;-95
2023/10/07 13:13:08;;;;;;;10.52;2.05;;;20.50;99.90;;;;;;4920110;29;20062;-93
2023/10/07 13:15:39;;;;;;;8.98;1.75;;;20.40;99.90;;;;;;4935652;29;20483;-95
2023/10/07 13:18:08;;;;;;;13.57;2.78;;;20.50;99.90;;;;;;4931630;29;20042;-92
2023/10/07 13:20:33;;;;;;;10.83;2.20;;;20.60;99.90;;;;;;4935877;29;20059;-90
2023/10/07 13:23:05;;;;;;;10.18;2.30;;;20.50;99.90;;;;;;4936573;29;20031;-95
2023/10/07 13:25:34;;;;;;;9.73;2.20;;;20.50;99.90;;;;;;4931979;29;20374;-95
2023/10/07 13:28:03;;;;;;;14.43;2.78;;;20.50;99.90;;;;;;4952212;29;20078;-93
2023/10/07 13:30:30;;;;;;;10.10;1.93;;;20.40;99.90;;;;;;4921894;29;20045;-92
2023/10/07 13:32:57;;;;;;;10.55;2.42;;;20.40;99.90;;;;;;4931628;29;20287;-95
2023/10/07 13:35:25;;;;;;;11.27;2.75;;;20.30;99.90;;;;;;4912832;29;20051;-91
2023/10/07 13:37:52;;;;;;;11.73;3.55;;;20.20;99.90;;;;;;4922676;29;20122;-92
2023/10/07 13:40:19;;;;;;;11.05;2.22;;;20.10;99.90;;;;;;4951499;29;20047;-94
2023/10/07 13:42:50;;;;;;;11.38;2.88;;;20.10;99.90;;;;;;4915275;29;20047;-93
2023/10/07 13:45:23;;;;;;;10.50;2.17;;;20.10;99.90;;;;;;4919388;29;20138;-94